sensor_id;sensor_type;location;lat;lon;timestamp;temperature;humidity
15259;DHT22;34462;51.368;12.364;2022-11-21T00:01:41;0.90;99.90
15259;DHT22;34462;51.368;12.364;2022-11-21T00:04:11;0.80;99.90
15259;DHT22;34462;51.368;12.364;2022-11-21T00:06:39;0.90;99.90
15259;DHT22;34462;51.368;12.364;2022-11-21T00:09:07;0.90;99.90
15259;DHT22;34462;51.368;12.364;2022-11-21T00:11:35;0.90;99.90
15259;DHT22;34462;51.368;12.364;2022-11-21T00:14:03;0.90;99.90
15259;DHT22;34462;51.368;12.364;2022-11-21T00:16:31;1.00;99.90
15259;DHT22;34462;51.368;12.364;2022-11-21T00:19:02;1.00;99.90
15259;DHT22;34462;51.368;12.364;2022-11-21T00:21:31;1.00;99.90
15259;DHT22;34462;51.368;12.364;2022-11-21T00:23:59;1.00;99.90
15259;DHT22;34462;51.368;12.364;2022-11-21T00:26:27;1.00;99.90
15259;DHT22;34462;51.368;12.364;2022-11-21T00:28:55;1.00;99.90
15259;DHT22;34462;51.368;12.364;2022-11-21T00:31:23;1.10;99.90
15259;DHT22;34462;51.368;12.364;2022-11-21T00:33:52;1.10;99.90
15259;DHT22;34462;51.368;12.364;2022-11-21T00:36:20;1.10;99.90
15259;DHT22;34462;51.368;12.364;2022-11-21T00:38:50;1.10;99.90
15259;DHT22;34462;51.368;12.364;2022-11-21T00:41:18;1.00;99.90
15259;DHT22;34462;51.368;12.364;2022-11-21T00:43:46;1.10;99.90
15259;DHT22;34462;51.368;12.364;2022-11-21T00:46:14;1.10;99.90
15259;DHT22;34462;51.368;12.364;2022-11-21T00:48:42;1.10;99.90
15259;DHT22;34462;51.368;12.364;2022-11-21T00:51:10;1.10;99.90
15259;DHT22;34462;51.368;12.364;2022-11-21T00:53:38;1.10;99.90
15259;DHT22;34462;51.368;12.364;2022-11-21T00:56:08;1.10;99.90
15259;DHT22;34462;51.368;12.364;2022-11-21T00:58:36;1.20;99.90
15259;DHT22;34462;51.368;12.364;2022-11-21T01:01:07;1.10;99.90
15259;DHT22;34462;51.368;12.364;2022-11-21T01:03:37;1.20;99.90
15259;DHT22;34462;51.368;12.364;2022-11-21T01:06:06;1.10;99.90
15259;DHT22;34462;51.368;12.364;2022-11-21T01:08:37;1.20;99.90
15259;DHT22;34462;51.368;12.364;2022-11-21T01:11:10;1.20;99.90
15259;DHT22;34462;51.368;12.364;2022-11-21T01:13:39;1.20;99.90
15259;DHT22;34462;51.368;12.364;2022-11-21T01:16:09;1.20;99.90
15259;DHT22;34462;51.368;12.364;2022-11-21T01:18:39;1.20;99.90
15259;DHT22;34462;51.368;12.364;2022-11-21T01:21:12;1.20;99.90
15259;DHT22;34462;51.368;12.364;2022-11-21T01:23:42;1.20;99.90
15259;DHT22;34462;51.368;12.364;2022-11-21T01:26:13;1.20;99.90
15259;DHT22;34462;51.368;12.364;2022-11-21T01:28:42;1.20;99.90
15259;DHT22;34462;51.368;12.364;2022-11-21T01:31:12;1.20;99.90
15259;DHT22;34462;51.368;12.364;2022-11-21T01:33:42;1.30;99.90
15259;DHT22;34462;51.368;12.364;2022-11-21T01:36:12;1.30;99.90
15259;DHT22;34462;51.368;12.364;2022-11-21T01:38:42;1.30;99.90
15259;DHT22;34462;51.368;12.364;2022-11-21T01:41:15;1.20;99.90
15259;DHT22;34462;51.368;12.364;2022-11-21T01:43:45;1.20;99.90
15259;DHT22;34462;51.368;12.364;2022-11-21T01:46:15;1.10;99.90
15259;DHT22;34462;51.368;12.364;2022-11-21T01:48:49;1.10;99.90
15259;DHT22;34462;51.368;12.364;2022-11-21T01:51:25;1.00;99.90
15259;DHT22;34462;51.368;12.364;2022-11-21T01:54:01;0.90;99.90
15259;DHT22;34462;51.368;12.364;2022-11-21T01:56:40;0.90;99.90
15259;DHT22;34462;51.368;12.364;2022-11-21T01:59:16;0.90;99.90
15259;DHT22;34462;51.368;12.364;2022-11-21T02:01:50;0.80;99.90
15259;DHT22;34462;51.368;12.364;2022-11-21T02:04:24;0.80;99.90
15259;DHT22;34462;51.368;12.364;2022-11-21T02:06:56;0.80;99.90
15259;DHT22;34462;51.368;12.364;2022-11-21T02:09:25;0.70;99.90
15259;DHT22;34462;51.368;12.364;2022-11-21T02:11:57;0.80;99.90
15259;DHT22;34462;51.368;12.364;2022-11-21T02:14:29;0.70;99.90
15259;DHT22;34462;51.368;12.364;2022-11-21T02:17:03;0.70;99.90
15259;DHT22;34462;51.368;12.364;2022-11-21T02:19:43;0.70;99.90
15259;DHT22;34462;51.368;12.364;2022-11-21T02:22:26;0.60;99.90
15259;DHT22;34462;51.368;12.364;2022-11-21T02:25:06;0.70;99.90
15259;DHT22;34462;51.368;12.364;2022-11-21T02:27:36;0.70;99.90
15259;DHT22;34462;51.368;12.364;2022-11-21T02:30:07;0.60;99.90
15259;DHT22;34462;51.368;12.364;2022-11-21T02:32:38;0.60;99.90
15259;DHT22;34462;51.368;12.364;2022-11-21T02:35:08;0.60;99.90
15259;DHT22;34462;51.368;12.364;2022-11-21T02:37:36;0.60;99.90
15259;DHT22;34462;51.368;12.364;2022-11-21T02:40:08;0.50;99.90
15259;DHT22;34462;51.368;12.364;2022-11-21T02:42:44;0.50;99.90
15259;DHT22;34462;51.368;12.364;2022-11-21T02:45:20;0.60;99.90
15259;DHT22;34462;51.368;12.364;2022-11-21T02:47:55;0.50;99.90
15259;DHT22;34462;51.368;12.364;2022-11-21T02:50:31;0.50;99.90
15259;DHT22;34462;51.368;12.364;2022-11-21T02:53:01;0.50;99.90
15259;DHT22;34462;51.368;12.364;2022-11-21T02:55:30;0.50;99.90
15259;DHT22;34462;51.368;12.364;2022-11-21T02:57:59;0.50;99.90
15259;DHT22;34462;51.368;12.364;2022-11-21T03:00:31;0.50;99.90
15259;DHT22;34462;51.368;12.364;2022-11-21T03:03:00;0.50;99.90
15259;DHT22;34462;51.368;12.364;2022-11-21T03:05:29;0.50;99.90
15259;DHT22;34462;51.368;12.364;2022-11-21T03:07:57;0.50;99.90
15259;DHT22;34462;51.368;12.364;2022-11-21T03:10:25;0.60;99.90
15259;DHT22;34462;51.368;12.364;2022-11-21T03:12:55;0.70;99.90
15259;DHT22;34462;51.368;12.364;2022-11-21T03:15:29;0.70;99.90
15259;DHT22;34462;51.368;12.364;2022-11-21T03:17:59;1.00;99.90
15259;DHT22;34462;51.368;12.364;2022-11-21T03:20:29;0.80;99.90
15259;DHT22;34462;51.368;12.364;2022-11-21T03:22:58;0.80;99.90
15259;DHT22;34462;51.368;12.364;2022-11-21T03:25:26;0.80;99.90
15259;DHT22;34462;51.368;12.364;2022-11-21T03:27:55;0.70;99.90
15259;DHT22;34462;51.368;12.364;2022-11-21T03:30:25;0.60;99.90
15259;DHT22;34462;51.368;12.364;2022-11-21T03:32:54;0.60;99.90
15259;DHT22;34462;51.368;12.364;2022-11-21T03:35:22;0.70;99.90
15259;DHT22;34462;51.368;12.364;2022-11-21T03:37:50;0.60;99.90
15259;DHT22;34462;51.368;12.364;2022-11-21T03:40:19;0.60;99.90
15259;DHT22;34462;51.368;12.364;2022-11-21T03:42:47;0.60;99.90
15259;DHT22;34462;51.368;12.364;2022-11-21T03:45:16;0.50;99.90
15259;DHT22;34462;51.368;12.364;2022-11-21T03:47:45;0.40;99.90
15259;DHT22;34462;51.368;12.364;2022-11-21T03:50:14;0.50;99.90
15259;DHT22;34462;51.368;12.364;2022-11-21T03:52:44;0.40;99.90
15259;DHT22;34462;51.368;12.364;2022-11-21T03:55:12;0.50;99.90
15259;DHT22;34462;51.368;12.364;2022-11-21T03:57:41;0.50;99.90
15259;DHT22;34462;51.368;12.364;2022-11-21T04:00:10;0.40;99.90
15259;DHT22;34462;51.368;12.364;2022-11-21T04:02:41;0.40;99.90
15259;DHT22;34462;51.368;12.364;2022-11-21T04:05:09;0.40;99.90
15259;DHT22;34462;51.368;12.364;2022-11-21T04:07:37;0.30;99.90
15259;DHT22;34462;51.368;12.364;2022-11-21T04:10:06;0.40;99.90
15259;DHT22;34462;51.368;12.364;2022-11-21T04:12:34;0.40;99.90
15259;DHT22;34462;51.368;12.364;2022-11-21T04:15:03;0.30;99.90
15259;DHT22;34462;51.368;12.364;2022-11-21T04:17:38;0.30;99.90
15259;DHT22;34462;51.368;12.364;2022-11-21T04:20:09;0.30;99.90
15259;DHT22;34462;51.368;12.364;2022-11-21T04:22:38;0.30;99.90
15259;DHT22;34462;51.368;12.364;2022-11-21T04:25:07;0.30;99.90
15259;DHT22;34462;51.368;12.364;2022-11-21T04:27:35;0.30;99.90
15259;DHT22;34462;51.368;12.364;2022-11-21T04:30:04;0.30;99.90
15259;DHT22;34462;51.368;12.364;2022-11-21T04:32:33;0.30;99.90
15259;DHT22;34462;51.368;12.364;2022-11-21T04:35:03;0.30;99.90
15259;DHT22;34462;51.368;12.364;2022-11-21T04:37:31;0.30;99.90
15259;DHT22;34462;51.368;12.364;2022-11-21T04:40:00;0.20;99.90
15259;DHT22;34462;51.368;12.364;2022-11-21T04:42:28;0.20;99.90
15259;DHT22;34462;51.368;12.364;2022-11-21T04:44:56;0.20;99.90
15259;DHT22;34462;51.368;12.364;2022-11-21T04:47:24;0.20;99.90
15259;DHT22;34462;51.368;12.364;2022-11-21T04:49:52;0.20;99.90
15259;DHT22;34462;51.368;12.364;2022-11-21T04:52:22;0.20;99.90
15259;DHT22;34462;51.368;12.364;2022-11-21T04:54:50;0.20;99.90
15259;DHT22;34462;51.368;12.364;2022-11-21T04:57:18;0.20;99.90
15259;DHT22;34462;51.368;12.364;2022-11-21T04:59:46;0.20;99.90
15259;DHT22;34462;51.368;12.364;2022-11-21T05:02:14;0.20;99.90
15259;DHT22;34462;51.368;12.364;2022-11-21T05:04:42;0.20;99.90
15259;DHT22;34462;51.368;12.364;2022-11-21T05:07:11;0.20;99.90
15259;DHT22;34462;51.368;12.364;2022-11-21T05:09:41;0.10;99.90
15259;DHT22;34462;51.368;12.364;2022-11-21T05:12:09;0.00;99.90
15259;DHT22;34462;51.368;12.364;2022-11-21T05:14:55;0.10;99.90
15259;DHT22;34462;51.368;12.364;2022-11-21T05:17:23;0.20;99.90
15259;DHT22;34462;51.368;12.364;2022-11-21T05:19:51;0.20;99.90
15259;DHT22;34462;51.368;12.364;2022-11-21T05:22:19;0.10;99.90
15259;DHT22;34462;51.368;12.364;2022-11-21T05:24:49;0.10;99.90
15259;DHT22;34462;51.368;12.364;2022-11-21T05:27:17;0.10;99.90
15259;DHT22;34462;51.368;12.364;2022-11-21T05:29:45;0.20;99.90
15259;DHT22;34462;51.368;12.364;2022-11-21T05:32:13;0.20;99.90
15259;DHT22;34462;51.368;12.364;2022-11-21T05:34:43;0.20;99.90
15259;DHT22;34462;51.368;12.364;2022-11-21T05:37:11;0.10;99.90
15259;DHT22;34462;51.368;12.364;2022-11-21T05:39:39;0.10;99.90
15259;DHT22;34462;51.368;12.364;2022-11-21T05:42:08;0.20;99.90
15259;DHT22;34462;51.368;12.364;2022-11-21T05:44:36;0.20;99.90
15259;DHT22;34462;51.368;12.364;2022-11-21T05:47:04;0.20;99.90
15259;DHT22;34462;51.368;12.364;2022-11-21T05:49:32;0.20;99.90
15259;DHT22;34462;51.368;12.364;2022-11-21T05:52:00;0.20;99.90
15259;DHT22;34462;51.368;12.364;2022-11-21T05:54:28;0.20;99.90
15259;DHT22;34462;51.368;12.364;2022-11-21T05:56:56;0.20;99.90
15259;DHT22;34462;51.368;12.364;2022-11-21T05:59:26;0.20;99.90
15259;DHT22;34462;51.368;12.364;2022-11-21T06:01:54;0.20;99.90
15259;DHT22;34462;51.368;12.364;2022-11-21T06:04:39;0.20;99.90
15259;DHT22;34462;51.368;12.364;2022-11-21T06:07:08;0.30;99.90
15259;DHT22;34462;51.368;12.364;2022-11-21T06:09:36;0.30;99.90
15259;DHT22;34462;51.368;12.364;2022-11-21T06:12:04;0.30;99.90
15259;DHT22;34462;51.368;12.364;2022-11-21T06:14:34;0.20;99.90
15259;DHT22;34462;51.368;12.364;2022-11-21T06:17:02;0.10;99.90
15259;DHT22;34462;51.368;12.364;2022-11-21T06:19:30;0.10;99.90
15259;DHT22;34462;51.368;12.364;2022-11-21T06:21:58;0.10;99.90
15259;DHT22;34462;51.368;12.364;2022-11-21T06:24:26;0.00;99.90
15259;DHT22;34462;51.368;12.364;2022-11-21T06:26:54;0.10;99.90
15259;DHT22;34462;51.368;12.364;2022-11-21T06:29:24;0.10;99.90
15259;DHT22;34462;51.368;12.364;2022-11-21T06:31:53;0.10;99.90
15259;DHT22;34462;51.368;12.364;2022-11-21T06:34:22;0.10;99.90
15259;DHT22;34462;51.368;12.364;2022-11-21T06:36:52;0.10;99.90
15259;DHT22;34462;51.368;12.364;2022-11-21T06:39:21;0.20;99.90
15259;DHT22;34462;51.368;12.364;2022-11-21T06:41:49;0.00;99.90
15259;DHT22;34462;51.368;12.364;2022-11-21T06:44:17;0.10;99.90
15259;DHT22;34462;51.368;12.364;2022-11-21T06:46:45;0.10;99.90
15259;DHT22;34462;51.368;12.364;2022-11-21T06:49:18;0.00;99.90
15259;DHT22;34462;51.368;12.364;2022-11-21T06:51:47;0.10;99.90
15259;DHT22;34462;51.368;12.364;2022-11-21T06:54:15;0.10;99.90
15259;DHT22;34462;51.368;12.364;2022-11-21T06:56:44;0.00;99.90
15259;DHT22;34462;51.368;12.364;2022-11-21T06:59:12;0.10;99.90
15259;DHT22;34462;51.368;12.364;2022-11-21T07:01:40;0.10;99.90
15259;DHT22;34462;51.368;12.364;2022-11-21T07:04:08;0.00;99.90
15259;DHT22;34462;51.368;12.364;2022-11-21T07:06:38;0.00;99.90
15259;DHT22;34462;51.368;12.364;2022-11-21T07:09:06;0.00;99.90
15259;DHT22;34462;51.368;12.364;2022-11-21T07:11:54;0.00;99.90
15259;DHT22;34462;51.368;12.364;2022-11-21T07:14:42;0.00;99.90
15259;DHT22;34462;51.368;12.364;2022-11-21T07:17:10;0.00;99.90
15259;DHT22;34462;51.368;12.364;2022-11-21T07:19:38;0.10;99.90
15259;DHT22;34462;51.368;12.364;2022-11-21T07:22:08;0.10;99.90
15259;DHT22;34462;51.368;12.364;2022-11-21T07:24:37;0.20;99.90
15259;DHT22;34462;51.368;12.364;2022-11-21T07:27:05;0.20;99.90
15259;DHT22;34462;51.368;12.364;2022-11-21T07:29:33;0.20;99.90
15259;DHT22;34462;51.368;12.364;2022-11-21T07:32:01;0.30;99.90
15259;DHT22;34462;51.368;12.364;2022-11-21T07:34:29;0.30;99.90
15259;DHT22;34462;51.368;12.364;2022-11-21T07:36:57;0.40;99.90
15259;DHT22;34462;51.368;12.364;2022-11-21T07:39:27;0.40;99.90
15259;DHT22;34462;51.368;12.364;2022-11-21T07:41:55;0.50;99.90
15259;DHT22;34462;51.368;12.364;2022-11-21T07:44:23;0.40;99.90
15259;DHT22;34462;51.368;12.364;2022-11-21T07:46:53;0.30;99.90
15259;DHT22;34462;51.368;12.364;2022-11-21T07:49:22;0.40;99.90
15259;DHT22;34462;51.368;12.364;2022-11-21T07:51:50;0.50;99.90
15259;DHT22;34462;51.368;12.364;2022-11-21T07:54:18;0.50;99.90
15259;DHT22;34462;51.368;12.364;2022-11-21T07:56:47;0.40;99.90
15259;DHT22;34462;51.368;12.364;2022-11-21T07:59:15;0.40;99.90
15259;DHT22;34462;51.368;12.364;2022-11-21T08:01:45;0.40;99.90
15259;DHT22;34462;51.368;12.364;2022-11-21T08:04:13;0.30;99.90
15259;DHT22;34462;51.368;12.364;2022-11-21T08:06:41;0.30;99.90
15259;DHT22;34462;51.368;12.364;2022-11-21T08:09:09;0.40;99.90
15259;DHT22;34462;51.368;12.364;2022-11-21T08:11:37;0.30;99.90
15259;DHT22;34462;51.368;12.364;2022-11-21T08:14:07;0.30;99.90
15259;DHT22;34462;51.368;12.364;2022-11-21T08:16:35;0.40;99.90
15259;DHT22;34462;51.368;12.364;2022-11-21T08:19:03;0.40;99.90
15259;DHT22;34462;51.368;12.364;2022-11-21T08:21:32;0.40;99.90
15259;DHT22;34462;51.368;12.364;2022-11-21T08:24:00;0.50;99.90
15259;DHT22;34462;51.368;12.364;2022-11-21T08:26:28;0.50;99.90
15259;DHT22;34462;51.368;12.364;2022-11-21T08:28:56;0.50;99.90
15259;DHT22;34462;51.368;12.364;2022-11-21T08:31:27;0.50;99.90
15259;DHT22;34462;51.368;12.364;2022-11-21T08:33:55;0.60;99.90
15259;DHT22;34462;51.368;12.364;2022-11-21T08:36:23;0.60;99.90
15259;DHT22;34462;51.368;12.364;2022-11-21T08:38:51;0.50;99.90
15259;DHT22;34462;51.368;12.364;2022-11-21T08:41:20;0.60;99.90
15259;DHT22;34462;51.368;12.364;2022-11-21T08:44:06;0.70;99.90
15259;DHT22;34462;51.368;12.364;2022-11-21T08:46:41;0.80;99.90
15259;DHT22;34462;51.368;12.364;2022-11-21T08:49:10;0.70;99.90
15259;DHT22;34462;51.368;12.364;2022-11-21T08:51:38;0.80;99.90
15259;DHT22;34462;51.368;12.364;2022-11-21T08:54:07;0.80;99.90
15259;DHT22;34462;51.368;12.364;2022-11-21T08:56:36;0.80;99.90
15259;DHT22;34462;51.368;12.364;2022-11-21T08:59:04;0.90;99.90
15259;DHT22;34462;51.368;12.364;2022-11-21T09:01:32;0.90;99.90
15259;DHT22;34462;51.368;12.364;2022-11-21T09:04:02;0.90;99.90
15259;DHT22;34462;51.368;12.364;2022-11-21T09:06:30;1.00;99.90
15259;DHT22;34462;51.368;12.364;2022-11-21T09:08:58;1.00;99.90
15259;DHT22;34462;51.368;12.364;2022-11-21T09:11:27;1.10;99.90
15259;DHT22;34462;51.368;12.364;2022-11-21T09:13:55;1.20;99.90
15259;DHT22;34462;51.368;12.364;2022-11-21T09:16:42;1.30;99.90
15259;DHT22;34462;51.368;12.364;2022-11-21T09:19:29;1.40;99.90
15259;DHT22;34462;51.368;12.364;2022-11-21T09:21:58;1.80;99.90
15259;DHT22;34462;51.368;12.364;2022-11-21T09:24:26;1.70;99.90
15259;DHT22;34462;51.368;12.364;2022-11-21T09:26:54;1.90;99.90
15259;DHT22;34462;51.368;12.364;2022-11-21T09:29:22;2.00;99.90
15259;DHT22;34462;51.368;12.364;2022-11-21T09:31:50;2.10;99.90
15259;DHT22;34462;51.368;12.364;2022-11-21T09:34:18;2.20;99.90
15259;DHT22;34462;51.368;12.364;2022-11-21T09:36:48;2.20;99.90
15259;DHT22;34462;51.368;12.364;2022-11-21T09:39:16;2.20;99.90
15259;DHT22;34462;51.368;12.364;2022-11-21T09:41:56;2.10;99.90
15259;DHT22;34462;51.368;12.364;2022-11-21T09:44:57;2.20;99.90
15259;DHT22;34462;51.368;12.364;2022-11-21T09:47:32;2.10;99.90
15259;DHT22;34462;51.368;12.364;2022-11-21T09:50:05;2.00;99.90
15259;DHT22;34462;51.368;12.364;2022-11-21T09:52:56;2.10;99.90
15259;DHT22;34462;51.368;12.364;2022-11-21T09:55:34;2.10;99.90
15259;DHT22;34462;51.368;12.364;2022-11-21T09:58:16;2.10;99.90
15259;DHT22;34462;51.368;12.364;2022-11-21T10:00:49;2.10;99.90
15259;DHT22;34462;51.368;12.364;2022-11-21T10:03:21;2.10;99.90
15259;DHT22;34462;51.368;12.364;2022-11-21T10:05:54;2.00;99.90
15259;DHT22;34462;51.368;12.364;2022-11-21T10:08:39;1.90;99.90
15259;DHT22;34462;51.368;12.364;2022-11-21T10:11:20;1.90;99.90
15259;DHT22;34462;51.368;12.364;2022-11-21T10:14:07;2.00;99.90
15259;DHT22;34462;51.368;12.364;2022-11-21T10:16:50;2.10;99.90
15259;DHT22;34462;51.368;12.364;2022-11-21T10:19:44;2.00;99.90
15259;DHT22;34462;51.368;12.364;2022-11-21T10:22:40;2.00;99.90
15259;DHT22;34462;51.368;12.364;2022-11-21T10:25:24;2.20;99.90
15259;DHT22;34462;51.368;12.364;2022-11-21T10:27:59;2.30;99.90
15259;DHT22;34462;51.368;12.364;2022-11-21T10:30:34;2.40;99.90
15259;DHT22;34462;51.368;12.364;2022-11-21T10:33:04;2.40;99.90
15259;DHT22;34462;51.368;12.364;2022-11-21T10:35:40;2.60;99.90
15259;DHT22;34462;51.368;12.364;2022-11-21T10:38:21;2.60;99.90
15259;DHT22;34462;51.368;12.364;2022-11-21T10:40:55;2.70;99.90
15259;DHT22;34462;51.368;12.364;2022-11-21T10:43:34;2.60;99.90
15259;DHT22;34462;51.368;12.364;2022-11-21T10:46:27;2.70;99.90
15259;DHT22;34462;51.368;12.364;2022-11-21T10:48:57;2.70;99.90
15259;DHT22;34462;51.368;12.364;2022-11-21T10:51:36;2.60;99.90
15259;DHT22;34462;51.368;12.364;2022-11-21T10:54:11;2.60;99.90
15259;DHT22;34462;51.368;12.364;2022-11-21T10:57:05;2.60;99.90
15259;DHT22;34462;51.368;12.364;2022-11-21T10:59:39;2.70;99.90
15259;DHT22;34462;51.368;12.364;2022-11-21T11:02:22;2.70;99.90
15259;DHT22;34462;51.368;12.364;2022-11-21T11:05:17;2.80;99.90
15259;DHT22;34462;51.368;12.364;2022-11-21T11:08:02;2.90;99.90
15259;DHT22;34462;51.368;12.364;2022-11-21T11:10:34;2.70;99.90
15259;DHT22;34462;51.368;12.364;2022-11-21T11:13:13;2.70;99.90
15259;DHT22;34462;51.368;12.364;2022-11-21T11:16:18;2.80;99.90
15259;DHT22;34462;51.368;12.364;2022-11-21T11:18:54;2.70;99.90
15259;DHT22;34462;51.368;12.364;2022-11-21T11:21:26;2.60;99.90
15259;DHT22;34462;51.368;12.364;2022-11-21T11:24:06;2.40;99.90
15259;DHT22;34462;51.368;12.364;2022-11-21T11:26:55;2.30;99.90
15259;DHT22;34462;51.368;12.364;2022-11-21T11:29:27;2.20;99.90
15259;DHT22;34462;51.368;12.364;2022-11-21T11:32:00;2.20;99.90
15259;DHT22;34462;51.368;12.364;2022-11-21T11:34:37;2.30;99.90
15259;DHT22;34462;51.368;12.364;2022-11-21T11:37:11;2.30;99.90
15259;DHT22;34462;51.368;12.364;2022-11-21T11:39:53;2.50;99.90
15259;DHT22;34462;51.368;12.364;2022-11-21T11:42:51;2.50;99.90
15259;DHT22;34462;51.368;12.364;2022-11-21T11:46:07;2.60;99.90
15259;DHT22;34462;51.368;12.364;2022-11-21T11:49:02;2.60;99.90
15259;DHT22;34462;51.368;12.364;2022-11-21T11:51:50;2.70;99.90
15259;DHT22;34462;51.368;12.364;2022-11-21T11:54:23;2.50;99.90
15259;DHT22;34462;51.368;12.364;2022-11-21T11:56:54;2.50;99.90
15259;DHT22;34462;51.368;12.364;2022-11-21T11:59:27;2.50;99.90
15259;DHT22;34462;51.368;12.364;2022-11-21T12:02:05;2.50;99.90
15259;DHT22;34462;51.368;12.364;2022-11-21T12:04:45;2.50;99.90
15259;DHT22;34462;51.368;12.364;2022-11-21T12:07:21;2.50;99.90
15259;DHT22;34462;51.368;12.364;2022-11-21T12:10:15;2.40;99.90
15259;DHT22;34462;51.368;12.364;2022-11-21T12:12:54;2.20;99.90
15259;DHT22;34462;51.368;12.364;2022-11-21T12:15:33;2.00;99.90
15259;DHT22;34462;51.368;12.364;2022-11-21T12:18:26;2.10;99.90
15259;DHT22;34462;51.368;12.364;2022-11-21T12:21:04;2.10;99.90
15259;DHT22;34462;51.368;12.364;2022-11-21T12:23:47;2.20;99.90
15259;DHT22;34462;51.368;12.364;2022-11-21T12:26:28;2.20;99.90
15259;DHT22;34462;51.368;12.364;2022-11-21T12:29:12;2.20;99.90
15259;DHT22;34462;51.368;12.364;2022-11-21T12:32:00;2.30;99.90
15259;DHT22;34462;51.368;12.364;2022-11-21T12:35:07;2.20;99.90
15259;DHT22;34462;51.368;12.364;2022-11-21T12:37:59;2.20;99.90
15259;DHT22;34462;51.368;12.364;2022-11-21T12:40:46;2.10;99.90
15259;DHT22;34462;51.368;12.364;2022-11-21T12:43:32;2.10;99.90
15259;DHT22;34462;51.368;12.364;2022-11-21T12:46:17;2.10;99.90
15259;DHT22;34462;51.368;12.364;2022-11-21T12:48:56;2.10;99.90
15259;DHT22;34462;51.368;12.364;2022-11-21T12:52:04;2.10;99.90
15259;DHT22;34462;51.368;12.364;2022-11-21T12:55:07;2.00;99.90
15259;DHT22;34462;51.368;12.364;2022-11-21T12:57:50;2.00;99.90
15259;DHT22;34462;51.368;12.364;2022-11-21T13:00:39;2.10;99.90
15259;DHT22;34462;51.368;12.364;2022-11-21T13:03:34;2.10;99.90
15259;DHT22;34462;51.368;12.364;2022-11-21T13:06:15;2.10;99.90
15259;DHT22;34462;51.368;12.364;2022-11-21T13:08:49;2.10;99.90
15259;DHT22;34462;51.368;12.364;2022-11-21T13:11:26;2.00;99.90
15259;DHT22;34462;51.368;12.364;2022-11-21T13:14:34;2.10;99.90
15259;DHT22;34462;51.368;12.364;2022-11-21T13:17:25;2.10;99.90
15259;DHT22;34462;51.368;12.364;2022-11-21T13:20:11;2.10;99.90
15259;DHT22;34462;51.368;12.364;2022-11-21T13:25:55;2.10;99.90
15259;DHT22;34462;51.368;12.364;2022-11-21T13:28:44;2.10;99.90
15259;DHT22;34462;51.368;12.364;2022-11-21T13:31:29;2.10;99.90
15259;DHT22;34462;51.368;12.364;2022-11-21T13:33:59;2.00;99.90
15259;DHT22;34462;51.368;12.364;2022-11-21T13:36:40;2.00;99.90
15259;DHT22;34462;51.368;12.364;2022-11-21T13:39:36;2.10;99.90
15259;DHT22;34462;51.368;12.364;2022-11-21T13:42:15;2.00;99.90
15259;DHT22;34462;51.368;12.364;2022-11-21T13:48:55;2.10;99.90
15259;DHT22;34462;51.368;12.364;2022-11-21T13:51:48;2.20;99.90
15259;DHT22;34462;51.368;12.364;2022-11-21T13:54:31;2.30;99.90
15259;DHT22;34462;51.368;12.364;2022-11-21T13:57:32;2.30;99.90
15259;DHT22;34462;51.368;12.364;2022-11-21T14:00:27;2.50;99.90
15259;DHT22;34462;51.368;12.364;2022-11-21T14:03:32;2.40;99.90
15259;DHT22;34462;51.368;12.364;2022-11-21T14:06:31;2.40;99.90
15259;DHT22;34462;51.368;12.364;2022-11-21T14:09:16;2.30;99.90
15259;DHT22;34462;51.368;12.364;2022-11-21T14:11:49;2.10;99.90
15259;DHT22;34462;51.368;12.364;2022-11-21T14:14:28;2.00;99.90
15259;DHT22;34462;51.368;12.364;2022-11-21T14:17:30;1.90;99.90
15259;DHT22;34462;51.368;12.364;2022-11-21T14:20:14;1.80;99.90
15259;DHT22;34462;51.368;12.364;2022-11-21T14:22:52;1.80;99.90
15259;DHT22;34462;51.368;12.364;2022-11-21T14:25:28;1.90;99.90
15259;DHT22;34462;51.368;12.364;2022-11-21T14:28:05;1.90;99.90
15259;DHT22;34462;51.368;12.364;2022-11-21T14:30:40;1.90;99.90
15259;DHT22;34462;51.368;12.364;2022-11-21T14:33:23;1.80;99.90
15259;DHT22;34462;51.368;12.364;2022-11-21T14:35:55;1.80;99.90
15259;DHT22;34462;51.368;12.364;2022-11-21T14:38:28;1.80;99.90
15259;DHT22;34462;51.368;12.364;2022-11-21T14:41:28;1.80;99.90
15259;DHT22;34462;51.368;12.364;2022-11-21T14:44:03;1.70;99.90
15259;DHT22;34462;51.368;12.364;2022-11-21T14:46:48;1.70;99.90
15259;DHT22;34462;51.368;12.364;2022-11-21T14:49:24;1.70;99.90
15259;DHT22;34462;51.368;12.364;2022-11-21T14:52:07;1.60;99.90
15259;DHT22;34462;51.368;12.364;2022-11-21T14:54:50;1.50;99.90
15259;DHT22;34462;51.368;12.364;2022-11-21T14:57:41;1.50;99.90
15259;DHT22;34462;51.368;12.364;2022-11-21T15:00:14;1.60;99.90
15259;DHT22;34462;51.368;12.364;2022-11-21T15:03:18;1.50;99.90
15259;DHT22;34462;51.368;12.364;2022-11-21T15:05:48;1.50;99.90
15259;DHT22;34462;51.368;12.364;2022-11-21T15:08:32;1.50;99.90
15259;DHT22;34462;51.368;12.364;2022-11-21T15:11:23;1.40;99.90
15259;DHT22;34462;51.368;12.364;2022-11-21T15:13:59;1.40;99.90
15259;DHT22;34462;51.368;12.364;2022-11-21T15:16:53;1.40;99.90
15259;DHT22;34462;51.368;12.364;2022-11-21T15:19:27;1.50;99.90
15259;DHT22;34462;51.368;12.364;2022-11-21T15:21:57;1.50;99.90
15259;DHT22;34462;51.368;12.364;2022-11-21T15:24:36;1.50;99.90
15259;DHT22;34462;51.368;12.364;2022-11-21T15:27:29;1.50;99.90
15259;DHT22;34462;51.368;12.364;2022-11-21T15:30:04;1.40;99.90
15259;DHT22;34462;51.368;12.364;2022-11-21T15:33:03;1.50;99.90
15259;DHT22;34462;51.368;12.364;2022-11-21T15:35:46;1.50;99.90
15259;DHT22;34462;51.368;12.364;2022-11-21T15:38:18;1.50;99.90
15259;DHT22;34462;51.368;12.364;2022-11-21T15:41:00;1.50;99.90
15259;DHT22;34462;51.368;12.364;2022-11-21T15:43:39;1.50;99.90
15259;DHT22;34462;51.368;12.364;2022-11-21T15:46:14;1.50;99.90
15259;DHT22;34462;51.368;12.364;2022-11-21T15:48:45;1.50;99.90
15259;DHT22;34462;51.368;12.364;2022-11-21T15:51:16;1.40;99.90
15259;DHT22;34462;51.368;12.364;2022-11-21T15:54:06;1.40;99.90
15259;DHT22;34462;51.368;12.364;2022-11-21T15:56:37;1.40;99.90
15259;DHT22;34462;51.368;12.364;2022-11-21T15:59:06;1.40;99.90
15259;DHT22;34462;51.368;12.364;2022-11-21T16:01:35;1.50;99.90
15259;DHT22;34462;51.368;12.364;2022-11-21T16:04:05;1.30;99.90
15259;DHT22;34462;51.368;12.364;2022-11-21T16:06:36;1.40;99.90
15259;DHT22;34462;51.368;12.364;2022-11-21T16:09:04;1.40;99.90
15259;DHT22;34462;51.368;12.364;2022-11-21T16:11:34;1.30;99.90
15259;DHT22;34462;51.368;12.364;2022-11-21T16:14:06;1.20;99.90
15259;DHT22;34462;51.368;12.364;2022-11-21T16:16:37;1.20;99.90
15259;DHT22;34462;51.368;12.364;2022-11-21T16:19:10;1.20;99.90
15259;DHT22;34462;51.368;12.364;2022-11-21T16:21:40;1.10;99.90
15259;DHT22;34462;51.368;12.364;2022-11-21T16:24:09;1.00;99.90